Texanna, Oklahoma
Current Conditions -  °F | °C
As of 6:53 PM on Monday 20 Oct 2014 (Local Time) from KMKO Reporting Station
Broken Clouds Broken Clouds  
Wind Chill: 68°   Ceiling: 8000
Heat Index: 68°   Visibility: 10mi
Dew Point: 60°   Wind: 6mph
Humidity: 76%   Direction: 50°NE
Pressure: 30.03"   Gusts: NA
Location:  35.4498°N, 95.4869°W
Report Text: KMKO 202353Z AUTO 05005KT 10SM BKN080 20/16 A3003 RMK AO2 SLP167 T02000156 10256 20200 53005
Loading
Personal Weather Stations






























Interactive Weather Map
Tropical Storm Tracking
New forecast layout! Learn more

10-Day Weather Forecast

Advertisements
Track Severe Weather on mobile